createdAt,value
2019-04-05T00:00:22.684Z,12.50
2019-04-05T00:02:51.106Z,12.30
2019-04-05T00:05:19.558Z,12.40
2019-04-05T00:07:47.985Z,12.40
2019-04-05T00:10:16.771Z,12.40
2019-04-05T00:12:45.219Z,12.20
2019-04-05T00:15:16.064Z,12.10
2019-04-05T00:17:43.882Z,12.00
2019-04-05T00:20:13.883Z,11.90
2019-04-05T00:22:42.308Z,11.80
2019-04-05T00:25:11.005Z,11.70
2019-04-05T00:27:39.426Z,11.60
2019-04-05T00:30:08.627Z,11.70
2019-04-05T00:32:37.062Z,11.60
2019-04-05T00:35:07.643Z,11.60
2019-04-05T00:37:36.072Z,11.60
2019-04-05T00:40:07.135Z,11.50
2019-04-05T00:42:35.586Z,11.50
2019-04-05T00:45:06.061Z,11.50
2019-04-05T00:47:34.502Z,11.40
2019-04-05T00:50:03.623Z,11.50
2019-04-05T00:52:32.072Z,11.40
2019-04-05T00:55:00.503Z,11.50
2019-04-05T00:57:28.944Z,11.50
2019-04-05T00:59:57.412Z,11.50
2019-04-05T01:02:25.914Z,11.50
2019-04-05T01:04:54.366Z,11.50
2019-04-05T01:07:23.499Z,11.40
2019-04-05T01:09:51.938Z,11.30
2019-04-05T01:12:22.496Z,11.30
2019-04-05T01:14:51.011Z,11.40
2019-04-05T01:17:24.892Z,11.50
2019-04-05T01:19:50.870Z,11.60
2019-04-05T01:22:22.396Z,11.70
2019-04-05T01:24:50.892Z,11.50
2019-04-05T01:27:20.375Z,11.40
2019-04-05T01:29:48.813Z,11.20
2019-04-05T01:32:17.306Z,11.10
2019-04-05T01:34:45.731Z,11.00
2019-04-05T01:37:14.219Z,11.00
2019-04-05T01:39:42.651Z,10.90
2019-04-05T01:42:11.167Z,10.80
2019-04-05T01:44:40.245Z,10.70
2019-04-05T01:47:08.712Z,10.60
2019-04-05T01:49:37.263Z,10.50
2019-04-05T01:52:05.700Z,10.60
2019-04-05T01:54:34.152Z,10.40
2019-04-05T01:57:02.583Z,10.30
2019-04-05T01:59:31.121Z,10.20
2019-04-05T02:01:59.633Z,10.20
2019-04-05T02:04:28.069Z,10.20
2019-04-05T02:06:56.769Z,10.20
2019-04-05T02:09:25.227Z,10.00
2019-04-05T02:11:53.643Z,9.80
2019-04-05T02:14:22.114Z,9.80
2019-04-05T02:16:50.609Z,9.70
2019-04-05T02:19:19.070Z,9.70
2019-04-05T02:21:47.514Z,9.70
2019-04-05T02:24:15.990Z,9.60
2019-04-05T02:26:44.428Z,9.50
2019-04-05T02:29:12.849Z,9.40
2019-04-05T02:31:41.292Z,9.40
2019-04-05T02:34:09.704Z,9.30
2019-04-05T02:36:38.151Z,9.20
2019-04-05T02:39:07.707Z,9.10
2019-04-05T02:41:38.309Z,9.00
2019-04-05T02:44:09.346Z,8.90
2019-04-05T02:46:40.088Z,8.80
2019-04-05T02:49:09.960Z,8.80
2019-04-05T02:51:39.636Z,8.70
2019-04-05T02:54:09.015Z,8.70
2019-04-05T02:56:38.214Z,8.60
2019-04-05T02:59:07.657Z,8.70
2019-04-05T03:01:36.295Z,8.60
2019-04-05T03:04:05.099Z,8.50
2019-04-05T03:06:33.555Z,8.50
2019-04-05T03:09:04.297Z,8.50
2019-04-05T03:11:33.573Z,8.70
2019-04-05T03:14:03.873Z,9.00
2019-04-05T03:16:40.760Z,9.20
2019-04-05T03:19:08.662Z,9.30
2019-04-05T03:21:40.228Z,9.30
2019-04-05T03:24:11.694Z,9.40
2019-04-05T03:26:43.192Z,9.40
2019-04-05T03:29:11.968Z,9.50
2019-04-05T03:31:40.547Z,9.50
2019-04-05T03:34:09.300Z,9.50
2019-04-05T03:36:38.493Z,9.50
2019-04-05T03:39:07.368Z,9.40
2019-04-05T03:41:36.458Z,9.30
2019-04-05T03:44:05.514Z,9.20
2019-04-05T03:46:34.250Z,9.00
2019-04-05T03:49:04.003Z,8.80
2019-04-05T03:51:32.784Z,8.60
2019-04-05T03:54:01.369Z,8.30
2019-04-05T03:56:30.075Z,8.10
2019-04-05T03:58:58.686Z,7.80
2019-04-05T04:01:27.327Z,7.90
2019-04-05T04:03:55.747Z,7.80
2019-04-05T04:06:24.216Z,7.80
2019-04-05T04:08:53.346Z,7.90
2019-04-05T04:11:22.279Z,7.80
2019-04-05T04:13:51.152Z,7.80
2019-04-05T04:16:19.647Z,7.80
2019-04-05T04:18:48.274Z,7.90
2019-04-05T04:21:31.358Z,8.00
2019-04-05T04:23:59.762Z,8.00
2019-04-05T04:26:28.282Z,8.10
2019-04-05T04:28:57.307Z,8.10
2019-04-05T04:31:26.148Z,8.20
2019-04-05T04:33:54.569Z,8.20
2019-04-05T04:36:24.014Z,8.20
2019-04-05T04:38:52.690Z,8.20
2019-04-05T04:41:21.315Z,8.20
2019-04-05T04:43:49.746Z,8.30
2019-04-05T04:46:18.951Z,8.30
2019-04-05T04:48:48.254Z,8.40
2019-04-05T04:51:17.935Z,8.40
2019-04-05T04:53:46.566Z,8.40
2019-04-05T04:56:15.069Z,8.30
2019-04-05T04:58:46.239Z,8.30
2019-04-05T05:01:14.002Z,8.30
2019-04-05T05:03:43.705Z,8.40
2019-04-05T05:06:12.150Z,8.40
2019-04-05T05:08:41.110Z,8.40
2019-04-05T05:11:14.858Z,8.50
2019-04-05T05:13:40.831Z,8.50
2019-04-05T05:16:09.410Z,8.50
2019-04-05T05:18:38.371Z,8.50
2019-04-05T05:21:07.097Z,8.60
2019-04-05T05:23:35.587Z,8.60
2019-04-05T05:26:05.036Z,8.60
2019-04-05T05:28:33.565Z,8.70
2019-04-05T05:31:04.812Z,8.70
2019-04-05T05:33:33.628Z,8.80
2019-04-05T05:36:02.265Z,8.70
2019-04-05T05:38:30.709Z,8.70
2019-04-05T05:41:03.805Z,8.70
2019-04-05T05:43:32.672Z,8.70
2019-04-05T05:46:01.115Z,8.70
2019-04-05T05:48:31.015Z,8.80
2019-04-05T05:50:59.641Z,8.80
2019-04-05T05:53:28.331Z,8.80
2019-04-05T05:55:57.286Z,8.80
2019-04-05T05:58:26.441Z,8.80
2019-04-05T06:00:55.662Z,8.70
2019-04-05T06:03:24.175Z,8.70
2019-04-05T06:06:03.645Z,8.80
2019-04-05T06:08:22.855Z,8.80
2019-04-05T06:10:51.294Z,8.80
2019-04-05T06:13:20.049Z,8.90
2019-04-05T06:15:48.557Z,9.00
2019-04-05T06:18:17.030Z,9.00
2019-04-05T06:20:45.506Z,9.10
2019-04-05T06:23:13.956Z,9.20
2019-04-05T06:25:42.466Z,9.20
2019-04-05T06:28:10.961Z,9.30
2019-04-05T06:30:39.410Z,9.20
2019-04-05T06:33:07.855Z,9.20
2019-04-05T06:35:36.296Z,9.10
2019-04-05T06:38:04.724Z,9.30
2019-04-05T06:40:40.685Z,9.40
2019-04-05T06:43:06.425Z,9.30
2019-04-05T06:45:33.501Z,9.50
2019-04-05T06:48:01.928Z,9.60
2019-04-05T06:50:30.388Z,9.60
2019-04-05T06:52:58.808Z,9.60
2019-04-05T06:55:27.255Z,9.40
2019-04-05T06:57:56.069Z,9.20
2019-04-05T07:00:29.178Z,9.30
2019-04-05T07:02:58.841Z,9.40
2019-04-05T07:05:27.349Z,9.40
2019-04-05T07:07:55.795Z,9.50
2019-04-05T07:10:24.334Z,9.60
2019-04-05T07:12:52.806Z,9.80
2019-04-05T07:15:21.295Z,9.90
2019-04-05T07:17:49.745Z,9.90
2019-04-05T07:20:18.172Z,9.90
2019-04-05T07:22:46.629Z,10.10
2019-04-05T07:25:15.136Z,10.10
2019-04-05T07:27:43.583Z,10.40
2019-04-05T07:30:13.195Z,10.40
2019-04-05T07:32:41.645Z,10.30
2019-04-05T07:35:10.160Z,10.20
2019-04-05T07:37:38.617Z,10.40
2019-04-05T07:40:07.698Z,10.50
2019-04-05T07:42:36.186Z,10.70
2019-04-05T07:45:06.147Z,11.00
2019-04-05T07:47:34.618Z,10.70
2019-04-05T07:50:04.203Z,10.60
2019-04-05T07:52:32.671Z,10.80
2019-04-05T07:55:01.135Z,11.00
2019-04-05T07:57:29.636Z,11.40
2019-04-05T07:59:58.061Z,11.80
2019-04-05T08:02:26.507Z,11.90
2019-04-05T08:04:54.945Z,12.00
2019-04-05T08:07:27.405Z,11.80
2019-04-05T08:09:56.688Z,11.70
2019-04-05T08:12:25.651Z,12.10
2019-04-05T08:14:55.344Z,13.10
2019-04-05T08:17:24.490Z,14.20
2019-04-05T08:19:52.998Z,14.30
2019-04-05T08:22:21.447Z,14.50
2019-04-05T08:24:49.880Z,15.00
2019-04-05T08:27:18.338Z,14.90
2019-04-05T08:29:46.846Z,14.00
2019-04-05T08:32:15.313Z,13.80
2019-04-05T08:34:43.721Z,13.90
2019-04-05T08:37:12.152Z,13.70
2019-04-05T08:39:40.611Z,13.90
2019-04-05T08:42:10.789Z,14.30
2019-04-05T08:44:39.213Z,14.80
2019-04-05T08:47:07.647Z,15.10
2019-04-05T08:49:36.086Z,15.40
2019-04-05T08:52:04.629Z,15.30
2019-04-05T08:54:36.513Z,15.30
2019-04-05T08:57:03.227Z,16.50
2019-04-05T08:59:31.656Z,16.10
2019-04-05T09:02:00.118Z,15.90
2019-04-05T09:04:28.658Z,16.80
2019-04-05T09:06:57.079Z,16.10
2019-04-05T09:09:25.545Z,16.20
2019-04-05T09:11:54.626Z,16.80
2019-04-05T09:14:23.047Z,16.90
2019-04-05T09:16:51.506Z,17.60
2019-04-05T09:19:23.861Z,17.60
2019-04-05T09:21:50.106Z,17.80
2019-04-05T09:24:18.532Z,17.90
2019-04-05T09:26:46.989Z,17.30
2019-04-05T09:29:15.452Z,17.40
2019-04-05T09:31:43.952Z,17.90
2019-04-05T09:34:12.416Z,17.70
2019-04-05T09:36:40.858Z,17.50
2019-04-05T09:39:15.397Z,17.60
2019-04-05T09:41:41.114Z,17.70
2019-04-05T09:44:09.584Z,17.70
2019-04-05T09:46:46.883Z,17.60
2019-04-05T09:49:08.173Z,18.50
2019-04-05T09:51:36.620Z,17.70
2019-04-05T09:54:05.285Z,18.20
2019-04-05T09:56:33.750Z,19.00
2019-04-05T09:59:02.190Z,19.00
2019-04-05T10:01:30.650Z,18.90
2019-04-05T10:03:59.102Z,18.70
2019-04-05T10:06:27.557Z,19.30
2019-04-05T10:08:55.986Z,19.20
2019-04-05T10:11:24.733Z,19.00
2019-04-05T10:13:53.170Z,18.80
2019-04-05T10:16:21.632Z,19.20
2019-04-05T10:18:51.499Z,19.70
2019-04-05T10:21:20.098Z,20.10
2019-04-05T10:23:48.566Z,20.00
2019-04-05T10:26:17.003Z,20.90
2019-04-05T10:28:45.453Z,20.10
2019-04-05T10:31:13.927Z,19.40
2019-04-05T10:33:42.359Z,19.60
2019-04-05T10:36:10.825Z,19.80
2019-04-05T10:38:39.383Z,19.50
2019-04-05T10:41:07.805Z,20.10
2019-04-05T10:43:36.256Z,19.90
2019-04-05T10:46:05.536Z,20.10
2019-04-05T10:48:35.375Z,20.30
2019-04-05T10:51:04.195Z,20.10
2019-04-05T10:53:32.713Z,20.80
2019-04-05T10:56:01.160Z,21.20
2019-04-05T10:58:29.695Z,21.30
2019-04-05T11:00:58.123Z,21.20
2019-04-05T11:03:26.596Z,21.10
2019-04-05T11:05:55.033Z,22.30
2019-04-05T11:08:23.508Z,22.10
2019-04-05T11:10:51.955Z,21.90
2019-04-05T11:13:20.385Z,22.70
2019-04-05T11:15:48.940Z,23.80
2019-04-05T11:18:17.392Z,24.00
2019-04-05T11:20:48.980Z,23.10
2019-04-05T11:23:15.967Z,22.80
2019-04-05T11:25:44.429Z,22.90
2019-04-05T11:28:12.863Z,22.60
2019-04-05T11:30:43.661Z,22.00
2019-04-05T11:33:12.104Z,22.10
2019-04-05T11:35:40.762Z,22.10
2019-04-05T11:38:09.290Z,22.80
2019-04-05T11:40:38.675Z,23.20
2019-04-05T11:43:07.099Z,22.40
2019-04-05T11:45:35.631Z,22.20
2019-04-05T11:48:05.695Z,22.30
2019-04-05T11:50:35.008Z,23.30
2019-04-05T11:53:03.647Z,23.00
2019-04-05T11:55:32.106Z,22.70
2019-04-05T11:58:00.547Z,23.70
2019-04-05T12:00:30.654Z,23.10
2019-04-05T12:03:09.499Z,22.60
2019-04-05T12:05:36.878Z,23.20
2019-04-05T12:08:05.319Z,23.60
2019-04-05T12:10:33.783Z,23.50
2019-04-05T12:13:02.207Z,24.30
2019-04-05T12:15:30.743Z,23.90
2019-04-05T12:17:59.176Z,23.50
2019-04-05T12:20:27.626Z,24.20
2019-04-05T12:22:56.047Z,23.70
2019-04-05T12:25:25.039Z,23.00
2019-04-05T12:28:05.822Z,23.10
2019-04-05T12:30:25.505Z,23.80
2019-04-05T12:32:54.876Z,23.90
2019-04-05T12:35:23.313Z,23.30
2019-04-05T12:37:55.517Z,23.60
2019-04-05T12:40:21.931Z,24.20
2019-04-05T12:42:52.850Z,24.10
2019-04-05T12:45:20.610Z,23.60
2019-04-05T12:47:49.150Z,23.70
2019-04-05T12:50:17.659Z,23.90
2019-04-05T12:52:46.103Z,23.80
2019-04-05T12:55:14.742Z,24.60
2019-04-05T12:57:43.181Z,24.60
2019-04-05T13:00:15.258Z,24.10
2019-04-05T13:02:43.917Z,23.90
2019-04-05T13:05:12.503Z,23.90
2019-04-05T13:07:40.957Z,24.30
2019-04-05T13:10:09.827Z,23.50
2019-04-05T13:12:38.357Z,23.70
2019-04-05T13:15:12.871Z,24.10
2019-04-05T13:17:37.375Z,23.90
2019-04-05T13:20:07.743Z,23.80
2019-04-05T13:22:36.167Z,24.30
2019-04-05T13:25:10.621Z,24.20
2019-04-05T13:27:37.493Z,23.80
2019-04-05T13:30:07.889Z,23.10
2019-04-05T13:32:36.330Z,23.30
2019-04-05T13:35:05.932Z,23.50
2019-04-05T13:37:34.347Z,23.50
2019-04-05T13:40:03.034Z,23.70
2019-04-05T13:42:32.034Z,23.70
2019-04-05T13:45:00.493Z,23.90
2019-04-05T13:47:28.939Z,24.00
2019-04-05T13:49:57.416Z,23.50
2019-04-05T13:52:25.883Z,23.40
2019-04-05T13:54:55.315Z,23.60
2019-04-05T13:57:23.736Z,23.90
2019-04-05T13:59:52.226Z,23.60
2019-04-05T14:02:21.216Z,24.40
2019-04-05T14:04:53.436Z,24.40
2019-04-05T14:07:21.590Z,24.10
2019-04-05T14:09:50.443Z,23.70
2019-04-05T14:12:18.895Z,23.50
2019-04-05T14:14:51.010Z,23.70
2019-04-05T14:17:17.568Z,23.10
2019-04-05T14:19:46.770Z,22.40
2019-04-05T14:22:16.434Z,21.50
2019-04-05T14:24:44.893Z,21.00
2019-04-05T14:27:13.298Z,20.00
2019-04-05T14:29:41.781Z,19.00
2019-04-05T14:32:20.586Z,18.20
2019-04-05T14:34:40.417Z,18.00
2019-04-05T14:37:08.883Z,17.80
2019-04-05T14:39:37.341Z,17.80
2019-04-05T14:42:09.976Z,17.50
2019-04-05T14:44:35.948Z,17.40
2019-04-05T14:47:04.363Z,17.40
2019-04-05T14:49:32.825Z,17.30
2019-04-05T14:52:01.940Z,17.20
2019-04-05T14:54:30.857Z,17.40
2019-04-05T14:57:02.359Z,17.50
2019-04-05T14:59:29.505Z,17.60
2019-04-05T15:01:57.993Z,17.70
2019-04-05T15:04:26.451Z,17.70
2019-04-05T15:06:55.391Z,17.80
2019-04-05T15:09:25.604Z,17.80
2019-04-05T15:11:54.014Z,17.90
2019-04-05T15:14:22.471Z,17.90
2019-04-05T15:16:50.911Z,17.90
2019-04-05T15:19:19.368Z,18.00
2019-04-05T15:21:47.802Z,18.00
2019-04-05T15:24:17.187Z,17.90
2019-04-05T15:26:45.670Z,18.00
2019-04-05T15:29:14.119Z,18.00
2019-04-05T15:31:42.538Z,18.00
2019-04-05T15:34:10.995Z,18.00
2019-04-05T15:36:39.448Z,18.10
2019-04-05T15:39:09.104Z,18.20
2019-04-05T15:41:37.530Z,18.30
2019-04-05T15:44:05.997Z,18.20
2019-04-05T15:46:34.420Z,18.10
2019-04-05T15:49:02.887Z,18.10
2019-04-05T15:51:31.321Z,18.00
2019-04-05T15:54:01.506Z,18.00
2019-04-05T15:56:33.255Z,18.00
2019-04-05T15:59:03.715Z,18.10
2019-04-05T16:01:32.106Z,18.10
2019-04-05T16:04:00.595Z,18.10
2019-04-05T16:06:30.583Z,18.10
2019-04-05T16:08:59.035Z,18.30
2019-04-05T16:11:27.464Z,18.30
2019-04-05T16:13:55.926Z,18.40
2019-04-05T16:16:24.369Z,18.20
2019-04-05T16:18:52.825Z,18.10
2019-04-05T16:21:21.311Z,18.10
2019-04-05T16:23:49.747Z,17.90
2019-04-05T16:26:18.195Z,17.90
2019-04-05T16:28:46.640Z,17.90
2019-04-05T16:31:15.082Z,17.80
2019-04-05T16:33:43.511Z,17.80
2019-04-05T16:36:12.117Z,17.70
2019-04-05T16:38:40.607Z,17.70
2019-04-05T16:41:09.074Z,17.70
2019-04-05T16:43:37.495Z,17.70
2019-04-05T16:46:05.938Z,17.60
2019-04-05T16:48:34.417Z,17.50
2019-04-05T16:51:02.859Z,17.50
2019-04-05T16:53:31.361Z,17.40
2019-04-05T16:55:59.849Z,17.40
2019-04-05T16:58:28.299Z,17.40
2019-04-05T17:00:56.757Z,17.50
2019-04-05T17:03:25.627Z,17.40
2019-04-05T17:05:54.074Z,17.30
2019-04-05T17:08:22.523Z,17.20
2019-04-05T17:10:50.983Z,17.20
2019-04-05T17:13:19.416Z,17.10
2019-04-05T17:15:47.866Z,17.00
2019-04-05T17:18:16.291Z,17.00
2019-04-05T17:20:44.747Z,17.10
2019-04-05T17:23:13.163Z,17.10
2019-04-05T17:25:41.619Z,17.10
2019-04-05T17:28:10.078Z,17.00
2019-04-05T17:30:38.602Z,17.00
2019-04-05T17:33:07.023Z,17.00
2019-04-05T17:35:35.456Z,17.00
2019-04-05T17:38:03.922Z,17.00
2019-04-05T17:40:32.343Z,17.00
2019-04-05T17:43:00.821Z,16.80
2019-04-05T17:45:29.241Z,16.70
2019-04-05T17:47:57.701Z,16.70
2019-04-05T17:50:31.472Z,16.60
2019-04-05T17:53:11.183Z,16.60
2019-04-05T17:55:30.145Z,16.50
2019-04-05T17:57:59.644Z,16.60
2019-04-05T18:00:28.225Z,16.60
2019-04-05T18:02:56.680Z,16.60
2019-04-05T18:05:25.792Z,16.50
2019-04-05T18:07:54.257Z,16.30
2019-04-05T18:10:22.702Z,16.20
2019-04-05T18:12:51.166Z,16.10
2019-04-05T18:15:19.588Z,15.90
2019-04-05T18:17:48.045Z,15.90
2019-04-05T18:20:16.468Z,15.80
2019-04-05T18:22:45.010Z,15.80
2019-04-05T18:25:14.365Z,15.80
2019-04-05T18:27:43.031Z,15.70
2019-04-05T18:30:11.680Z,15.70
2019-04-05T18:32:40.127Z,15.70
2019-04-05T18:35:08.735Z,15.60
2019-04-05T18:37:37.151Z,15.50
2019-04-05T18:40:07.344Z,15.40
2019-04-05T18:42:35.780Z,15.30
2019-04-05T18:45:06.473Z,15.30
2019-04-05T18:47:34.927Z,15.10
2019-04-05T18:50:04.348Z,15.10
2019-04-05T18:52:32.786Z,15.10
2019-04-05T18:55:01.239Z,15.10
2019-04-05T18:57:29.686Z,15.10
2019-04-05T18:59:58.137Z,15.10
2019-04-05T19:02:26.577Z,15.20
2019-04-05T19:04:55.958Z,15.10
2019-04-05T19:07:24.390Z,15.10
2019-04-05T19:09:52.926Z,15.10
2019-04-05T19:12:21.386Z,15.10
2019-04-05T19:14:49.828Z,15.10
2019-04-05T19:17:24.170Z,15.10
2019-04-05T19:19:48.449Z,15.00
2019-04-05T19:22:16.910Z,15.00
2019-04-05T19:24:45.374Z,15.00
2019-04-05T19:27:13.815Z,15.10
2019-04-05T19:29:42.432Z,15.00
2019-04-05T19:49:42.101Z,14.30
2019-04-05T19:52:10.573Z,14.30
2019-04-05T19:54:39.051Z,14.20
2019-04-05T19:57:07.490Z,14.00
2019-04-05T19:59:35.929Z,14.00
2019-04-05T20:02:04.510Z,13.90
2019-04-05T20:04:32.951Z,13.80
2019-04-05T20:07:01.419Z,13.90
2019-04-05T20:09:29.881Z,13.90
2019-04-05T20:11:58.349Z,14.10
2019-04-05T20:14:26.806Z,14.20
2019-04-05T20:16:56.169Z,14.20
2019-04-05T20:19:24.625Z,14.20
2019-04-05T20:21:53.068Z,14.20
2019-04-05T20:24:21.486Z,14.10
2019-04-05T20:26:49.959Z,14.00
2019-04-05T20:29:18.405Z,14.00
2019-04-05T20:31:46.841Z,14.00
2019-04-05T20:34:15.288Z,13.80
2019-04-05T20:36:43.712Z,13.80
2019-04-05T20:39:12.178Z,13.80
2019-04-05T20:41:40.600Z,13.80
2019-04-05T20:44:09.031Z,13.80
2019-04-05T20:46:37.486Z,13.80
2019-04-05T20:49:06.080Z,13.80
2019-04-05T20:51:34.521Z,13.70
2019-04-05T20:54:02.971Z,13.70
2019-04-05T20:56:31.413Z,13.60
2019-04-05T20:58:59.835Z,13.60
2019-04-05T21:01:28.326Z,13.50
2019-04-05T21:03:56.799Z,13.40
2019-04-05T21:06:26.229Z,13.40
2019-04-05T21:08:54.685Z,13.20
2019-04-05T21:11:23.235Z,12.90
2019-04-05T21:13:51.652Z,12.70
2019-04-05T21:16:20.128Z,12.60
2019-04-05T21:18:48.673Z,12.50
2019-04-05T21:21:17.206Z,12.50
2019-04-05T21:23:45.750Z,12.50
2019-04-05T21:26:14.211Z,12.50
2019-04-05T21:28:42.710Z,12.50
2019-04-05T21:31:11.223Z,12.50
2019-04-05T21:33:39.670Z,12.50
2019-04-05T21:36:08.099Z,12.30
2019-04-05T21:38:36.599Z,12.20
2019-04-05T21:41:05.031Z,12.10
2019-04-05T21:43:33.495Z,12.10
2019-04-05T21:46:01.964Z,12.10
2019-04-05T21:48:30.699Z,12.20
2019-04-05T21:50:59.285Z,12.20
2019-04-05T21:53:27.735Z,12.10
2019-04-05T21:55:56.255Z,12.00
2019-04-05T21:58:25.973Z,12.00
2019-04-05T22:01:02.231Z,11.90
2019-04-05T22:03:30.856Z,12.20
2019-04-05T22:05:59.322Z,12.20
2019-04-05T22:08:27.766Z,12.20
2019-04-05T22:10:56.403Z,12.20
2019-04-05T22:13:24.954Z,12.30
2019-04-05T22:15:53.380Z,12.40
2019-04-05T22:18:21.831Z,12.60
2019-04-05T22:20:50.329Z,12.70
2019-04-05T22:23:18.776Z,12.70
2019-04-05T22:25:47.195Z,12.80
2019-04-05T22:28:15.733Z,12.90
2019-04-05T22:30:44.205Z,13.10
2019-04-05T22:33:12.647Z,13.20
2019-04-05T22:35:41.109Z,13.00
2019-04-05T22:38:09.569Z,12.90
2019-04-05T22:40:37.991Z,13.00
2019-04-05T22:43:06.546Z,13.00
2019-04-05T22:45:35.015Z,13.00
2019-04-05T22:48:03.486Z,12.90
2019-04-05T22:50:32.057Z,13.00
2019-04-05T22:53:00.484Z,13.00
2019-04-05T22:55:28.936Z,13.00
2019-04-05T22:57:57.516Z,13.00
2019-04-05T23:00:26.397Z,13.00
2019-04-05T23:02:54.857Z,13.00
2019-04-05T23:05:23.328Z,13.10
2019-04-05T23:07:51.852Z,13.20
2019-04-05T23:10:20.451Z,13.30
2019-04-05T23:12:48.955Z,13.30
2019-04-05T23:15:17.453Z,13.40
2019-04-05T23:17:45.917Z,13.40
2019-04-05T23:20:14.441Z,13.40
2019-04-05T23:22:42.892Z,13.30
2019-04-05T23:25:21.529Z,13.20
2019-04-05T23:27:41.611Z,13.10
2019-04-05T23:30:10.128Z,13.00
2019-04-05T23:32:38.587Z,13.00
2019-04-05T23:35:07.459Z,12.90
2019-04-05T23:37:36.029Z,12.80
2019-04-05T23:40:05.869Z,12.80
2019-04-05T23:42:34.325Z,12.70
2019-04-05T23:45:02.749Z,12.60
2019-04-05T23:47:31.208Z,12.50
2019-04-05T23:49:59.647Z,12.50
2019-04-05T23:52:28.181Z,12.40
2019-04-05T23:54:56.677Z,12.50
2019-04-05T23:57:25.197Z,12.40
2019-04-05T23:59:53.619Z,12.50
